Time;durP1;ratioP1;P1;durP2;ratioP2;P2;SDS_P1;SDS_P2;PMS_P1;PMS_P2;Temp;Humidity;BMP_temperature;BMP_pressure;BME280_temperature;BME280_humidity;BME280_pressure;Samples;Min_cycle;Max_cycle;Signal;HPM_P1;HPM_P2
2021/10/02 00:46:46;;;;;;;;;13.00;11.25;;;;;;;;5030058;28;45631;-72
2021/10/02 00:49:11;;;;;;;;;6.75;5.00;;;;;;;;5018162;28;45527;-72
2021/10/02 00:51:39;;;;;;;;;8.50;8.50;;;;;;;;5016653;28;46140;-72
2021/10/02 00:54:04;;;;;;;;;7.00;7.00;;;;;;;;5016482;28;45565;-72
2021/10/02 00:56:30;;;;;;;;;5.75;5.75;;;;;;;;5014447;28;45310;-71
2021/10/02 00:58:55;;;;;;;;;7.50;7.50;;;;;;;;5014746;28;45482;-72
2021/10/02 01:01:37;;;;;;;;;6.50;6.50;;;;;;;;5017815;28;46390;-72
2021/10/02 01:04:21;;;;;;;;;9.75;6.75;;;;;;;;5016682;28;45510;-73
2021/10/02 01:06:55;;;;;;;;;40.75;34.25;;;;;;;;5016879;28;45509;-71
2021/10/02 01:09:39;;;;;;;;;7.75;6.00;;;;;;;;5016664;28;45564;-71
2021/10/02 01:12:25;;;;;;;;;8.50;7.75;;;;;;;;5026903;27;45401;-71
2021/10/02 01:14:54;;;;;;;;;6.25;6.25;;;;;;;;5078905;27;45429;-71
2021/10/02 01:17:23;;;;;;;;;13.25;10.75;;;;;;;;5074044;27;45407;-70
2021/10/02 01:20:18;;;;;;;;;8.75;7.50;;;;;;;;5079207;27;45287;-70
2021/10/02 01:22:46;;;;;;;;;9.75;9.75;;;;;;;;5009971;28;46948;-73
2021/10/02 01:25:20;;;;;;;;;9.00;9.00;;;;;;;;4999357;28;45649;-72
2021/10/02 01:28:07;;;;;;;;;7.25;7.25;;;;;;;;4999117;28;45649;-72
2021/10/02 01:33:40;;;;;;;;;5.50;5.50;;;;;;;;4999215;28;45548;-73
2021/10/02 01:36:37;;;;;;;;;7.75;6.50;;;;;;;;4999035;28;45469;-71
2021/10/02 01:47:18;;;;;;;;;7.75;7.75;;;;;;;;4979894;28;45515;-71
2021/10/02 01:49:45;;;;;;;;;7.25;6.25;;;;;;;;4997824;28;45409;-71
2021/10/02 01:52:12;;;;;;;;;5.00;5.00;;;;;;;;5000675;28;45387;-71
2021/10/02 01:54:40;;;;;;;;;7.25;7.25;;;;;;;;4998583;28;45487;-71
2021/10/02 01:57:06;;;;;;;;;10.00;8.00;;;;;;;;4998640;28;45456;-71
2021/10/02 01:59:32;;;;;;;;;8.50;8.50;;;;;;;;5046418;27;45442;-71
2021/10/02 02:01:58;;;;;;;;;7.00;4.50;;;;;;;;5076315;27;45342;-71
2021/10/02 02:04:25;;;;;;;;;24.50;23.50;;;;;;;;5078190;27;46521;-72
2021/10/02 02:06:52;;;;;;;;;36.00;31.25;;;;;;;;5078103;27;45466;-72
2021/10/02 02:09:18;;;;;;;;;25.00;21.50;;;;;;;;5078666;27;45389;-73
2021/10/02 02:11:45;;;;;;;;;8.25;8.25;;;;;;;;5077372;27;45554;-73
2021/10/02 02:14:11;;;;;;;;;3.00;3.00;;;;;;;;5073891;27;46084;-73
2021/10/02 02:16:37;;;;;;;;;30.75;28.00;;;;;;;;5079990;27;45494;-72
2021/10/02 02:19:03;;;;;;;;;8.25;7.00;;;;;;;;5078217;27;45568;-73
2021/10/02 02:21:28;;;;;;;;;7.25;4.75;;;;;;;;5078060;27;45553;-72
2021/10/02 02:23:54;;;;;;;;;7.00;7.00;;;;;;;;5077919;27;46148;-72
2021/10/02 02:26:19;;;;;;;;;5.75;5.75;;;;;;;;5074125;27;45461;-72
2021/10/02 02:28:45;;;;;;;;;4.25;3.50;;;;;;;;5079288;27;45881;-72
2021/10/02 02:31:10;;;;;;;;;8.00;6.50;;;;;;;;5078363;27;45380;-72
2021/10/02 02:33:36;;;;;;;;;7.00;6.00;;;;;;;;5077953;27;45500;-71
2021/10/02 02:36:02;;;;;;;;;4.00;4.00;;;;;;;;5058654;27;45386;-71
2021/10/02 02:38:28;;;;;;;;;15.50;15.50;;;;;;;;5074288;27;45403;-72
2021/10/02 02:40:53;;;;;;;;;8.25;5.50;;;;;;;;5076526;27;45404;-73
2021/10/02 02:43:18;;;;;;;;;3.50;3.50;;;;;;;;5078996;27;45379;-72
2021/10/02 02:45:47;;;;;;;;;16.25;14.25;;;;;;;;5077771;27;45456;-73
2021/10/02 02:48:14;;;;;;;;;6.00;4.50;;;;;;;;5077899;27;45395;-72
2021/10/02 02:50:46;;;;;;;;;5.25;3.00;;;;;;;;5076867;27;46034;-72
2021/10/02 02:53:15;;;;;;;;;3.50;2.75;;;;;;;;5056408;28;47149;-72
2021/10/02 02:55:49;;;;;;;;;5.50;3.50;;;;;;;;5086884;27;45451;-73
2021/10/02 02:58:17;;;;;;;;;5.00;5.00;;;;;;;;5077485;27;45478;-71
2021/10/02 03:00:53;;;;;;;;;3.25;3.00;;;;;;;;5077687;27;49397;-73
2021/10/02 03:03:21;;;;;;;;;5.75;3.00;;;;;;;;5077525;27;47048;-72
2021/10/02 03:05:46;;;;;;;;;4.50;2.00;;;;;;;;5077537;27;45461;-72
2021/10/02 03:08:13;;;;;;;;;5.00;3.75;;;;;;;;5055450;28;45447;-72
2021/10/02 03:10:45;;;;;;;;;4.00;4.00;;;;;;;;5079618;27;45338;-73
2021/10/02 03:13:12;;;;;;;;;5.50;5.50;;;;;;;;5060639;28;47133;-72
2021/10/02 03:15:39;;;;;;;;;2.00;2.00;;;;;;;;5076202;27;45423;-72
2021/10/02 03:18:06;;;;;;;;;3.00;3.00;;;;;;;;5076147;27;45279;-72
2021/10/02 03:20:34;;;;;;;;;6.00;4.50;;;;;;;;5075824;27;45412;-72
2021/10/02 03:23:00;;;;;;;;;4.00;4.00;;;;;;;;5074228;27;46189;-71
2021/10/02 03:25:29;;;;;;;;;3.00;3.00;;;;;;;;5078832;27;45334;-71
2021/10/02 03:27:56;;;;;;;;;3.00;3.00;;;;;;;;5077507;27;45386;-71
2021/10/02 03:30:21;;;;;;;;;2.25;2.25;;;;;;;;5077482;27;45394;-71
2021/10/02 03:32:48;;;;;;;;;4.00;4.00;;;;;;;;5077443;27;45983;-71
2021/10/02 03:35:14;;;;;;;;;5.00;5.00;;;;;;;;5055265;27;45439;-72
2021/10/02 03:37:40;;;;;;;;;4.00;4.00;;;;;;;;5079720;27;45348;-71
2021/10/02 03:40:06;;;;;;;;;7.00;5.75;;;;;;;;5076914;27;45423;-72
2021/10/02 03:42:31;;;;;;;;;5.00;5.00;;;;;;;;5076724;27;45575;-72
2021/10/02 03:44:56;;;;;;;;;6.00;6.00;;;;;;;;5077158;27;45315;-72
2021/10/02 03:47:22;;;;;;;;;7.50;6.25;;;;;;;;5074187;27;45241;-71
2021/10/02 03:49:47;;;;;;;;;7.75;7.25;;;;;;;;5077469;27;45546;-72
2021/10/02 03:52:13;;;;;;;;;7.00;7.00;;;;;;;;5077950;27;45244;-71
2021/10/02 03:54:39;;;;;;;;;8.25;7.00;;;;;;;;5074983;27;45411;-72
2021/10/02 03:57:04;;;;;;;;;9.75;8.50;;;;;;;;5075737;27;45668;-71
2021/10/02 03:59:30;;;;;;;;;12.75;10.50;;;;;;;;5075177;27;45574;-73
2021/10/02 04:01:55;;;;;;;;;11.00;8.50;;;;;;;;5074937;27;47203;-73
2021/10/02 04:04:22;;;;;;;;;7.75;7.00;;;;;;;;5081132;27;45413;-71
2021/10/02 04:06:47;;;;;;;;;9.25;8.00;;;;;;;;5080305;27;45426;-72
2021/10/02 04:09:12;;;;;;;;;10.50;9.25;;;;;;;;5079488;27;45368;-71
2021/10/02 04:11:37;;;;;;;;;9.75;7.50;;;;;;;;5078863;27;46423;-71
2021/10/02 04:14:03;;;;;;;;;13.75;11.50;;;;;;;;5058845;27;45531;-70
2021/10/02 04:16:29;;;;;;;;;11.50;10.25;;;;;;;;5082360;27;45312;-70
2021/10/02 04:18:54;;;;;;;;;9.75;8.50;;;;;;;;5080262;27;45525;-72
2021/10/02 04:21:19;;;;;;;;;9.25;9.00;;;;;;;;5080037;27;46327;-72
2021/10/02 04:23:44;;;;;;;;;6.75;6.00;;;;;;;;5079812;27;45512;-71
2021/10/02 04:26:10;;;;;;;;;8.00;6.75;;;;;;;;5076021;27;45374;-71
2021/10/02 04:28:35;;;;;;;;;12.00;8.00;;;;;;;;5082161;27;45362;-72
2021/10/02 04:31:03;;;;;;;;;10.75;8.50;;;;;;;;5079670;27;45586;-71
2021/10/02 04:33:28;;;;;;;;;7.00;6.00;;;;;;;;5078401;27;45457;-72
2021/10/02 04:35:53;;;;;;;;;11.00;10.25;;;;;;;;5078348;27;45367;-73
2021/10/02 04:38:19;;;;;;;;;8.25;7.50;;;;;;;;5076031;27;45365;-71
2021/10/02 04:40:44;;;;;;;;;12.00;10.25;;;;;;;;5080683;27;46914;-71
2021/10/02 04:43:09;;;;;;;;;10.50;10.25;;;;;;;;5079917;27;45426;-72
2021/10/02 04:45:34;;;;;;;;;9.00;9.00;;;;;;;;5080062;27;45326;-72
2021/10/02 04:47:59;;;;;;;;;10.75;10.75;;;;;;;;5079676;27;45383;-72
2021/10/02 04:50:25;;;;;;;;;13.00;8.00;;;;;;;;5076772;27;46213;-73
2021/10/02 04:52:54;;;;;;;;;13.50;13.00;;;;;;;;5078712;27;45316;-73
2021/10/02 04:55:19;;;;;;;;;9.50;7.75;;;;;;;;5080898;27;45419;-72
2021/10/02 04:57:45;;;;;;;;;7.00;7.00;;;;;;;;5079414;27;45296;-72
2021/10/02 05:00:10;;;;;;;;;8.50;7.75;;;;;;;;5079229;27;47120;-71
2021/10/02 05:02:35;;;;;;;;;12.00;9.00;;;;;;;;5077574;27;45334;-72
2021/10/02 05:05:00;;;;;;;;;9.50;9.50;;;;;;;;5076329;27;47324;-72
2021/10/02 05:07:25;;;;;;;;;10.00;10.00;;;;;;;;5081062;27;45216;-72
2021/10/02 05:09:51;;;;;;;;;13.00;9.75;;;;;;;;5079134;27;45514;-72
2021/10/02 05:12:16;;;;;;;;;10.75;10.75;;;;;;;;5077740;27;45379;-70
2021/10/02 05:14:41;;;;;;;;;11.00;9.75;;;;;;;;5076583;27;45533;-71
2021/10/02 05:17:10;;;;;;;;;7.75;7.75;;;;;;;;5075503;27;45573;-72
2021/10/02 05:19:35;;;;;;;;;8.50;8.50;;;;;;;;5081183;27;46265;-72
2021/10/02 05:22:01;;;;;;;;;11.50;11.50;;;;;;;;5078744;27;45489;-71
2021/10/02 05:24:26;;;;;;;;;9.50;9.25;;;;;;;;5078932;27;45354;-71
2021/10/02 05:26:51;;;;;;;;;12.50;10.00;;;;;;;;5074983;27;45471;-71
2021/10/02 05:29:16;;;;;;;;;12.00;9.25;;;;;;;;5090492;27;45552;-71
2021/10/02 05:31:42;;;;;;;;;12.25;11.25;;;;;;;;5080459;27;45385;-72
2021/10/02 05:34:07;;;;;;;;;11.50;9.00;;;;;;;;5079069;27;45441;-72
2021/10/02 05:36:32;;;;;;;;;15.50;15.50;;;;;;;;5078166;27;45276;-72
2021/10/02 05:38:57;;;;;;;;;10.50;10.25;;;;;;;;5078569;27;45491;-72
2021/10/02 05:41:23;;;;;;;;;9.75;9.75;;;;;;;;5075613;27;45436;-72
2021/10/02 05:43:48;;;;;;;;;7.75;7.75;;;;;;;;5078678;27;45300;-72
2021/10/02 05:46:13;;;;;;;;;10.25;9.00;;;;;;;;5078878;27;45440;-71
2021/10/02 05:48:38;;;;;;;;;7.75;7.75;;;;;;;;5078177;27;46395;-71
2021/10/02 05:51:04;;;;;;;;;12.00;8.00;;;;;;;;5076643;27;45295;-70
2021/10/02 05:53:29;;;;;;;;;9.50;8.00;;;;;;;;5056808;27;45457;-71
2021/10/02 05:55:55;;;;;;;;;9.00;8.00;;;;;;;;5076745;27;45500;-72
2021/10/02 05:58:20;;;;;;;;;8.50;7.25;;;;;;;;5079853;27;47081;-72
2021/10/02 06:00:45;;;;;;;;;9.25;8.00;;;;;;;;5078345;27;45514;-72
2021/10/02 06:03:10;;;;;;;;;9.00;8.75;;;;;;;;5078654;27;45554;-72
2021/10/02 06:05:35;;;;;;;;;11.25;7.75;;;;;;;;5077014;27;45425;-72
2021/10/02 06:08:01;;;;;;;;;6.50;6.00;;;;;;;;5075330;27;45344;-73
2021/10/02 06:10:26;;;;;;;;;6.75;6.00;;;;;;;;5080300;27;45621;-72
2021/10/02 06:12:54;;;;;;;;;10.75;7.50;;;;;;;;5078293;27;45297;-71
2021/10/02 06:15:20;;;;;;;;;4.50;4.50;;;;;;;;5078321;27;45604;-72
2021/10/02 06:17:46;;;;;;;;;7.00;7.00;;;;;;;;5059869;27;47427;-72
2021/10/02 06:20:11;;;;;;;;;6.50;5.50;;;;;;;;5073070;28;45276;-72
2021/10/02 06:22:36;;;;;;;;;5.25;3.50;;;;;;;;5061755;28;45379;-72
2021/10/02 06:25:02;;;;;;;;;7.00;4.25;;;;;;;;5078093;27;45450;-73
2021/10/02 06:27:27;;;;;;;;;10.75;5.75;;;;;;;;5076821;27;45964;-72
2021/10/02 06:29:52;;;;;;;;;2.75;2.75;;;;;;;;5076350;27;45436;-73
2021/10/02 06:32:17;;;;;;;;;5.00;5.00;;;;;;;;5072633;27;45457;-71
2021/10/02 06:34:43;;;;;;;;;8.00;5.50;;;;;;;;5078903;27;45267;-72
2021/10/02 06:37:08;;;;;;;;;3.75;3.75;;;;;;;;5076006;27;46144;-73
2021/10/02 06:39:33;;;;;;;;;1.50;1.50;;;;;;;;5077944;27;45397;-73
2021/10/02 06:41:58;;;;;;;;;1.75;1.75;;;;;;;;5077985;27;45460;-72
2021/10/02 06:44:23;;;;;;;;;2.50;2.50;;;;;;;;5074658;27;45448;-71
2021/10/02 06:46:49;;;;;;;;;4.75;4.75;;;;;;;;5077290;27;46174;-73
2021/10/02 06:49:14;;;;;;;;;5.00;3.00;;;;;;;;5076928;27;45478;-71
2021/10/02 06:51:39;;;;;;;;;2.25;2.25;;;;;;;;5077464;27;45543;-73
2021/10/02 06:54:05;;;;;;;;;3.25;3.00;;;;;;;;5059495;27;45405;-72
2021/10/02 06:56:30;;;;;;;;;3.00;3.00;;;;;;;;5075360;27;46120;-72
2021/10/02 06:58:55;;;;;;;;;3.00;2.00;;;;;;;;5075819;27;45377;-72
2021/10/02 07:01:20;;;;;;;;;1.00;1.00;;;;;;;;5078661;27;45323;-72
2021/10/02 07:03:46;;;;;;;;;5.75;3.75;;;;;;;;5076667;27;45503;-69
2021/10/02 07:06:11;;;;;;;;;3.75;3.50;;;;;;;;5058640;28;47986;-72
2021/10/02 07:08:36;;;;;;;;;2.00;2.00;;;;;;;;5074262;27;45184;-72
2021/10/02 07:11:01;;;;;;;;;3.50;3.50;;;;;;;;5074241;27;45739;-73
2021/10/02 07:13:27;;;;;;;;;4.25;2.25;;;;;;;;5059259;28;45260;-71
2021/10/02 07:15:52;;;;;;;;;2.50;2.50;;;;;;;;5076894;27;45931;-72
2021/10/02 07:18:17;;;;;;;;;3.25;3.00;;;;;;;;5076705;27;45482;-73
2021/10/02 07:20:43;;;;;;;;;1.00;1.00;;;;;;;;5076671;27;45592;-72
2021/10/02 07:23:08;;;;;;;;;5.50;2.00;;;;;;;;5073341;27;45528;-72
2021/10/02 07:25:33;;;;;;;;;7.25;4.25;;;;;;;;5078501;27;47099;-72
2021/10/02 07:27:59;;;;;;;;;4.50;4.50;;;;;;;;5076476;27;45253;-72
2021/10/02 07:30:24;;;;;;;;;2.75;2.75;;;;;;;;5076817;27;45529;-73
2021/10/02 07:32:50;;;;;;;;;0.00;0.00;;;;;;;;5076384;27;45405;-73
2021/10/02 07:35:15;;;;;;;;;1.75;1.75;;;;;;;;5072461;27;46204;-72
2021/10/02 07:37:41;;;;;;;;;1.25;1.25;;;;;;;;5078538;27;45360;-72
2021/10/02 07:40:07;;;;;;;;;1.25;1.25;;;;;;;;5080603;27;45545;-71
2021/10/02 07:42:34;;;;;;;;;4.25;2.00;;;;;;;;5079930;27;45313;-71
2021/10/02 07:45:02;;;;;;;;;1.75;1.75;;;;;;;;5079405;27;45562;-70
2021/10/02 07:47:28;;;;;;;;;3.50;3.25;;;;;;;;5075537;27;45367;-71
2021/10/02 07:49:54;;;;;;;;;2.50;2.50;;;;;;;;5079053;27;45296;-72
2021/10/02 07:52:19;;;;;;;;;3.00;2.00;;;;;;;;5079642;27;45424;-71
2021/10/02 07:54:45;;;;;;;;;4.00;4.00;;;;;;;;5061243;27;47068;-74
2021/10/02 07:57:11;;;;;;;;;2.00;2.00;;;;;;;;5079965;27;45598;-72
2021/10/02 07:59:36;;;;;;;;;3.00;1.00;;;;;;;;5078299;27;45486;-70
2021/10/02 08:02:05;;;;;;;;;3.25;3.25;;;;;;;;5077042;27;45517;-71
2021/10/02 08:04:30;;;;;;;;;3.25;2.50;;;;;;;;5081907;27;46287;-72
2021/10/02 08:06:55;;;;;;;;;3.00;2.25;;;;;;;;5079509;27;45500;-69
2021/10/02 08:09:20;;;;;;;;;1.75;1.00;;;;;;;;5080055;27;45402;-69
2021/10/02 08:11:46;;;;;;;;;5.00;4.00;;;;;;;;5079637;27;45459;-70
2021/10/02 08:14:11;;;;;;;;;2.00;2.00;;;;;;;;5074410;27;45296;-68
2021/10/02 08:16:38;;;;;;;;;3.50;2.25;;;;;;;;5081830;27;45317;-70
2021/10/02 08:19:05;;;;;;;;;2.50;2.50;;;;;;;;5079518;27;45289;-69
2021/10/02 08:21:31;;;;;;;;;3.00;2.25;;;;;;;;5079480;27;45455;-70
2021/10/02 08:23:56;;;;;;;;;3.25;2.50;;;;;;;;5079851;27;46133;-71
2021/10/02 08:26:22;;;;;;;;;2.75;2.25;;;;;;;;5074552;27;45428;-69
2021/10/02 08:28:48;;;;;;;;;6.75;4.00;;;;;;;;5079576;27;45272;-70
2021/10/02 08:31:15;;;;;;;;;4.50;3.25;;;;;;;;5078889;27;45255;-70
2021/10/02 08:33:40;;;;;;;;;1.75;1.75;;;;;;;;5079195;27;46266;-70
2021/10/02 08:36:06;;;;;;;;;5.00;3.00;;;;;;;;5079185;27;45410;-69
2021/10/02 08:38:31;;;;;;;;;7.50;5.25;;;;;;;;5077585;27;45352;-69
2021/10/02 08:40:56;;;;;;;;;1.00;1.00;;;;;;;;5076608;27;45199;-69
2021/10/02 08:43:22;;;;;;;;;6.50;2.50;;;;;;;;5080328;27;47108;-69
2021/10/02 08:45:48;;;;;;;;;2.00;2.00;;;;;;;;5078820;27;45559;-69
2021/10/02 08:48:14;;;;;;;;;3.00;2.00;;;;;;;;5078942;27;45806;-70
2021/10/02 08:50:40;;;;;;;;;3.75;1.75;;;;;;;;5076756;27;45442;-69
2021/10/02 08:53:06;;;;;;;;;4.75;3.00;;;;;;;;5075026;27;45494;-69
2021/10/02 08:55:33;;;;;;;;;3.50;3.00;;;;;;;;5080967;27;45375;-71
2021/10/02 08:57:59;;;;;;;;;2.25;2.25;;;;;;;;5078489;27;45399;-69
2021/10/02 09:00:24;;;;;;;;;2.00;2.00;;;;;;;;5078539;27;45508;-70
2021/10/02 09:02:50;;;;;;;;;2.50;2.50;;;;;;;;5078398;27;45275;-72
2021/10/02 09:05:16;;;;;;;;;3.00;3.00;;;;;;;;5073322;27;45318;-70
2021/10/02 09:07:42;;;;;;;;;4.00;4.00;;;;;;;;5080917;27;45295;-71
2021/10/02 09:10:08;;;;;;;;;2.00;2.00;;;;;;;;5077708;27;45334;-71
2021/10/02 09:12:34;;;;;;;;;3.75;2.75;;;;;;;;5078631;27;45394;-69
2021/10/02 09:15:02;;;;;;;;;4.00;4.00;;;;;;;;5078655;27;45236;-68
2021/10/02 09:17:28;;;;;;;;;5.50;4.75;;;;;;;;5076749;27;45403;-69
2021/10/02 09:19:53;;;;;;;;;4.00;4.00;;;;;;;;5078898;27;45412;-71
2021/10/02 09:22:21;;;;;;;;;2.00;2.00;;;;;;;;5095784;27;48466;-71
2021/10/02 09:24:47;;;;;;;;;2.50;2.50;;;;;;;;5078270;27;45379;-70
2021/10/02 09:27:15;;;;;;;;;3.50;3.50;;;;;;;;5078201;27;45607;-69
2021/10/02 09:29:42;;;;;;;;;3.75;2.00;;;;;;;;5077331;27;45509;-69
2021/10/02 09:32:12;;;;;;;;;2.75;2.00;;;;;;;;5073872;27;45391;-70
2021/10/02 09:34:45;;;;;;;;;3.75;3.25;;;;;;;;5079464;27;45305;-70
2021/10/02 09:37:39;;;;;;;;;2.75;2.75;;;;;;;;5078262;27;45354;-74
2021/10/02 09:40:10;;;;;;;;;3.00;3.00;;;;;;;;4995644;28;45682;-74
2021/10/02 09:42:43;;;;;;;;;4.00;2.00;;;;;;;;4995789;28;45421;-74
2021/10/02 09:45:08;;;;;;;;;2.00;2.00;;;;;;;;4996449;28;45509;-74
2021/10/02 09:47:33;;;;;;;;;4.50;3.00;;;;;;;;4995091;28;45459;-73
2021/10/02 09:49:59;;;;;;;;;4.50;4.50;;;;;;;;4994473;28;45946;-73
2021/10/02 09:52:34;;;;;;;;;4.00;3.75;;;;;;;;4997039;28;47028;-71
2021/10/02 09:55:01;;;;;;;;;2.50;2.50;;;;;;;;4996021;28;45518;-73
2021/10/02 09:57:26;;;;;;;;;2.50;2.50;;;;;;;;4996247;28;45469;-72
2021/10/02 10:00:05;;;;;;;;;4.25;3.00;;;;;;;;4996213;28;45488;-71
2021/10/02 10:02:35;;;;;;;;;4.25;4.25;;;;;;;;4994587;28;46033;-73
2021/10/02 10:05:01;;;;;;;;;2.00;2.00;;;;;;;;4994096;28;45892;-71
2021/10/02 10:07:26;;;;;;;;;3.00;1.00;;;;;;;;4996883;28;45317;-70
2021/10/02 10:09:58;;;;;;;;;4.25;2.25;;;;;;;;4979861;28;45638;-72
2021/10/02 10:12:27;;;;;;;;;4.00;2.00;;;;;;;;4995390;28;46016;-70
2021/10/02 10:14:52;;;;;;;;;3.25;2.00;;;;;;;;4996718;28;45415;-72
2021/10/02 10:17:17;;;;;;;;;1.75;1.75;;;;;;;;5059091;27;45352;-73
2021/10/02 10:19:45;;;;;;;;;1.25;1.25;;;;;;;;5060204;28;45490;-72
2021/10/02 10:22:18;;;;;;;;;1.00;1.00;;;;;;;;5076842;27;47489;-71
2021/10/02 10:25:03;;;;;;;;;3.25;2.00;;;;;;;;5074948;27;45476;-71
2021/10/02 10:27:33;;;;;;;;;3.25;3.25;;;;;;;;5060808;27;45553;-71
2021/10/02 10:30:19;;;;;;;;;1.75;1.75;;;;;;;;5076720;27;45501;-71
2021/10/02 10:33:02;;;;;;;;;3.00;2.75;;;;;;;;5075943;27;47484;-72
2021/10/02 10:35:29;;;;;;;;;3.25;1.50;;;;;;;;5059995;27;45316;-70
2021/10/02 10:37:54;;;;;;;;;2.00;2.00;;;;;;;;5075787;27;45305;-71
2021/10/02 10:40:20;;;;;;;;;1.00;1.00;;;;;;;;5078199;27;45425;-74
2021/10/02 10:42:45;;;;;;;;;2.50;2.00;;;;;;;;5076758;27;45954;-71
2021/10/02 10:45:11;;;;;;;;;3.00;3.00;;;;;;;;5077136;27;45411;-71
2021/10/02 10:47:36;;;;;;;;;4.25;4.25;;;;;;;;5075886;27;45348;-72
2021/10/02 10:50:02;;;;;;;;;2.00;2.00;;;;;;;;5074001;27;45492;-72
2021/10/02 10:52:33;;;;;;;;;2.75;1.75;;;;;;;;5078472;27;47171;-73
2021/10/02 10:54:59;;;;;;;;;4.00;1.50;;;;;;;;5076067;27;45489;-71
2021/10/02 10:57:34;;;;;;;;;4.00;3.00;;;;;;;;5077395;27;45275;-73
2021/10/02 10:59:59;;;;;;;;;1.75;1.75;;;;;;;;5084503;27;45285;-72
2021/10/02 11:02:41;;;;;;;;;2.75;1.00;;;;;;;;5071927;27;47228;-71
2021/10/02 11:05:26;;;;;;;;;2.25;2.00;;;;;;;;5072478;27;45396;-71
2021/10/02 11:07:51;;;;;;;;;2.75;2.75;;;;;;;;5086070;27;45421;-72
2021/10/02 11:10:35;;;;;;;;;2.25;2.25;;;;;;;;5077142;27;45536;-72
2021/10/02 11:13:00;;;;;;;;;4.00;3.00;;;;;;;;5075457;27;47205;-72
2021/10/02 11:15:26;;;;;;;;;4.00;4.00;;;;;;;;5076199;27;45358;-71
2021/10/02 11:17:51;;;;;;;;;3.25;1.75;;;;;;;;5057642;27;45363;-71
2021/10/02 11:20:16;;;;;;;;;7.50;7.25;;;;;;;;5071743;27;45309;-72
2021/10/02 11:23:05;;;;;;;;;2.40;1.20;;;;;;;;5077916;27;46889;-73
2021/10/02 11:25:30;;;;;;;;;3.00;3.00;;;;;;;;5076596;27;45257;-74
2021/10/02 11:28:15;;;;;;;;;2.75;2.75;;;;;;;;5076417;27;45566;-74
2021/10/02 11:30:48;;;;;;;;;1.75;0.75;;;;;;;;5075734;27;45678;-73
2021/10/02 11:33:32;;;;;;;;;3.25;3.25;;;;;;;;5075914;27;46404;-73
2021/10/02 11:35:58;;;;;;;;;3.50;2.00;;;;;;;;5073748;27;45545;-74
2021/10/02 11:38:36;;;;;;;;;4.75;3.75;;;;;;;;5071865;27;45677;-74
2021/10/02 11:41:20;;;;;;;;;6.50;5.00;;;;;;;;5073411;27;45436;-75
2021/10/02 11:43:53;;;;;;;;;2.75;2.75;;;;;;;;5066896;27;47548;-72
2021/10/02 11:46:20;;;;;;;;;7.50;5.25;;;;;;;;5076818;27;45301;-74
2021/10/02 11:48:45;;;;;;;;;3.75;3.75;;;;;;;;5075227;27;45410;-73
2021/10/02 11:51:12;;;;;;;;;6.00;5.00;;;;;;;;5075894;27;45327;-74
2021/10/02 11:53:42;;;;;;;;;5.50;3.50;;;;;;;;5074538;27;45406;-74
2021/10/02 11:56:11;;;;;;;;;3.75;3.75;;;;;;;;5071899;27;45284;-73
2021/10/02 11:58:40;;;;;;;;;5.00;4.75;;;;;;;;5077475;27;45358;-73
2021/10/02 12:01:05;;;;;;;;;6.25;3.50;;;;;;;;5075775;27;45583;-72
2021/10/02 12:03:32;;;;;;;;;3.00;3.00;;;;;;;;5075686;27;47213;-70
2021/10/02 12:05:58;;;;;;;;;4.50;3.50;;;;;;;;5075091;27;45537;-73
2021/10/02 12:08:24;;;;;;;;;3.00;1.50;;;;;;;;5071982;27;45293;-72
2021/10/02 12:11:08;;;;;;;;;3.00;3.00;;;;;;;;5075317;27;45277;-75
2021/10/02 12:13:37;;;;;;;;;1.75;1.75;;;;;;;;5076766;27;45270;-74
2021/10/02 12:16:17;;;;;;;;;2.50;2.50;;;;;;;;5075025;27;45506;-73
2021/10/02 12:18:51;;;;;;;;;1.75;1.75;;;;;;;;5074980;27;45568;-73
2021/10/02 12:21:22;;;;;;;;;4.50;3.50;;;;;;;;5054899;28;45506;-74
2021/10/02 12:23:53;;;;;;;;;2.25;1.00;;;;;;;;5073027;27;45472;-72
2021/10/02 12:26:18;;;;;;;;;3.25;3.25;;;;;;;;5057882;27;45406;-74
2021/10/02 12:28:44;;;;;;;;;3.50;3.50;;;;;;;;5080465;27;45516;-73
2021/10/02 12:31:09;;;;;;;;;4.00;3.00;;;;;;;;5077507;27;45244;-74
2021/10/02 12:33:34;;;;;;;;;3.75;3.75;;;;;;;;5059550;28;46225;-73
2021/10/02 12:35:59;;;;;;;;;2.25;2.25;;;;;;;;5059067;27;45441;-72
2021/10/02 12:38:37;;;;;;;;;7.50;5.50;;;;;;;;5056997;27;45247;-72
2021/10/02 12:41:02;;;;;;;;;7.75;6.00;;;;;;;;5074922;27;45427;-72
2021/10/02 12:43:31;;;;;;;;;4.75;4.00;;;;;;;;5080114;27;46327;-73
2021/10/02 12:45:56;;;;;;;;;3.00;3.00;;;;;;;;5077782;27;45395;-72
2021/10/02 12:48:21;;;;;;;;;7.75;4.50;;;;;;;;5077254;27;45312;-72
2021/10/02 12:50:46;;;;;;;;;4.00;2.75;;;;;;;;5076511;27;45424;-72
2021/10/02 12:53:12;;;;;;;;;5.50;4.00;;;;;;;;5072422;27;46452;-74
2021/10/02 12:55:38;;;;;;;;;4.75;3.00;;;;;;;;5079210;27;45211;-72
2021/10/02 12:58:11;;;;;;;;;3.00;3.00;;;;;;;;5077273;27;45152;-73
2021/10/02 13:00:36;;;;;;;;;3.25;1.50;;;;;;;;5076492;27;45292;-73
2021/10/02 13:03:03;;;;;;;;;2.25;1.75;;;;;;;;5075647;27;46349;-73
2021/10/02 13:05:32;;;;;;;;;3.50;3.50;;;;;;;;5074951;27;45358;-74
2021/10/02 13:07:58;;;;;;;;;4.50;3.25;;;;;;;;5075889;27;45379;-74
2021/10/02 13:10:35;;;;;;;;;4.00;2.75;;;;;;;;5078850;27;45534;-73
2021/10/02 13:13:00;;;;;;;;;4.50;3.50;;;;;;;;5076669;27;46221;-73
2021/10/02 13:15:48;;;;;;;;;3.25;3.25;;;;;;;;5076933;27;45398;-74
2021/10/02 13:18:14;;;;;;;;;5.25;4.50;;;;;;;;5076462;27;45418;-73
2021/10/02 13:20:39;;;;;;;;;3.75;3.50;;;;;;;;5076000;27;45478;-73
2021/10/02 13:23:06;;;;;;;;;4.75;4.00;;;;;;;;5074032;27;46111;-73
2021/10/02 13:25:36;;;;;;;;;5.00;4.00;;;;;;;;5079149;27;45366;-73
2021/10/02 13:28:02;;;;;;;;;2.50;2.25;;;;;;;;5076987;27;45354;-74
2021/10/02 13:30:27;;;;;;;;;5.50;3.75;;;;;;;;5076919;27;45412;-73
2021/10/02 13:33:02;;;;;;;;;7.40;6.40;;;;;;;;5077874;27;46198;-73
2021/10/02 13:35:28;;;;;;;;;5.50;4.00;;;;;;;;5073957;27;45436;-73
2021/10/02 13:37:53;;;;;;;;;6.00;4.75;;;;;;;;5076180;27;45317;-73
2021/10/02 13:40:23;;;;;;;;;5.75;5.75;;;;;;;;5076541;27;45475;-73
2021/10/02 13:42:50;;;;;;;;;5.25;3.25;;;;;;;;5075251;27;47341;-73
2021/10/02 13:45:18;;;;;;;;;5.50;5.00;;;;;;;;5058556;27;45429;-72
2021/10/02 13:47:53;;;;;;;;;3.50;3.50;;;;;;;;5075788;27;45492;-73
2021/10/02 13:50:19;;;;;;;;;4.00;4.00;;;;;;;;5057569;27;45522;-73
2021/10/02 13:52:45;;;;;;;;;5.75;3.25;;;;;;;;5078813;27;45265;-72
2021/10/02 13:55:10;;;;;;;;;2.00;2.00;;;;;;;;5075953;27;45441;-73
2021/10/02 13:57:36;;;;;;;;;4.00;3.00;;;;;;;;5077599;27;45444;-73
2021/10/02 14:00:01;;;;;;;;;5.00;5.00;;;;;;;;5058916;27;45436;-73
2021/10/02 14:02:26;;;;;;;;;4.25;2.25;;;;;;;;5073452;27;46121;-73
2021/10/02 14:04:51;;;;;;;;;6.50;4.75;;;;;;;;5076863;27;45496;-74
2021/10/02 14:07:16;;;;;;;;;2.00;2.00;;;;;;;;5077644;27;45438;-73
2021/10/02 14:09:42;;;;;;;;;3.50;3.50;;;;;;;;5077306;27;45470;-73
2021/10/02 14:12:10;;;;;;;;;3.75;3.75;;;;;;;;5076209;27;46115;-74
2021/10/02 14:14:41;;;;;;;;;3.75;3.75;;;;;;;;5074613;27;45935;-74
2021/10/02 14:17:07;;;;;;;;;5.25;4.25;;;;;;;;5073564;27;45623;-73
2021/10/02 14:19:32;;;;;;;;;4.75;2.50;;;;;;;;5078839;27;45415;-73
2021/10/02 14:21:57;;;;;;;;;3.75;3.00;;;;;;;;5075468;27;46950;-72
2021/10/02 14:24:23;;;;;;;;;3.00;3.00;;;;;;;;5077125;27;45483;-72
2021/10/02 14:26:48;;;;;;;;;3.00;3.00;;;;;;;;5077183;27;45335;-73
2021/10/02 14:29:13;;;;;;;;;3.00;3.00;;;;;;;;5055946;28;45472;-74
2021/10/02 14:31:38;;;;;;;;;0.50;0.50;;;;;;;;5078309;27;45402;-73
2021/10/02 14:34:07;;;;;;;;;3.75;3.75;;;;;;;;5076539;27;45386;-73
2021/10/02 14:36:32;;;;;;;;;2.00;2.00;;;;;;;;5076565;27;45415;-73
2021/10/02 14:38:57;;;;;;;;;3.00;3.00;;;;;;;;5076169;27;45342;-72
2021/10/02 14:41:25;;;;;;;;;2.25;0.50;;;;;;;;5072267;27;45637;-74
2021/10/02 14:43:50;;;;;;;;;4.00;4.00;;;;;;;;5076013;27;45356;-73
2021/10/02 14:46:15;;;;;;;;;6.00;5.00;;;;;;;;5076369;27;45846;-74
2021/10/02 14:48:40;;;;;;;;;3.75;3.75;;;;;;;;5075302;27;45483;-74
2021/10/02 14:51:05;;;;;;;;;4.25;4.25;;;;;;;;5075653;27;45414;-74
2021/10/02 14:53:31;;;;;;;;;5.75;4.00;;;;;;;;5073467;27;45433;-75
2021/10/02 14:55:56;;;;;;;;;4.00;4.00;;;;;;;;5075096;27;45350;-72
2021/10/02 14:58:22;;;;;;;;;4.50;4.50;;;;;;;;5075815;27;45340;-74
2021/10/02 15:00:48;;;;;;;;;4.25;4.25;;;;;;;;5073876;27;45520;-73
2021/10/02 15:03:14;;;;;;;;;2.75;2.75;;;;;;;;5076937;27;45372;-74
2021/10/02 15:05:39;;;;;;;;;4.75;3.75;;;;;;;;5075045;27;45461;-73
2021/10/02 15:08:05;;;;;;;;;4.25;4.25;;;;;;;;5072494;27;45308;-73
2021/10/02 15:10:30;;;;;;;;;5.25;2.25;;;;;;;;5077395;27;45402;-73
2021/10/02 15:12:56;;;;;;;;;6.00;5.25;;;;;;;;5075548;27;45306;-73
2021/10/02 15:15:22;;;;;;;;;4.50;3.50;;;;;;;;5075685;27;45574;-74
2021/10/02 15:17:47;;;;;;;;;3.00;3.00;;;;;;;;5076323;27;45530;-73
2021/10/02 15:20:12;;;;;;;;;3.25;3.25;;;;;;;;5072037;27;47032;-74
2021/10/02 15:22:38;;;;;;;;;3.50;2.50;;;;;;;;5077632;27;45425;-74
2021/10/02 15:25:05;;;;;;;;;3.75;3.75;;;;;;;;5076531;27;47775;-73
2021/10/02 15:27:33;;;;;;;;;3.75;3.75;;;;;;;;5080445;27;45578;-74
2021/10/02 15:29:58;;;;;;;;;1.25;1.25;;;;;;;;5080590;27;46356;-73
2021/10/02 15:32:26;;;;;;;;;3.25;2.00;;;;;;;;5072233;27;45480;-74
2021/10/02 15:34:52;;;;;;;;;3.50;3.50;;;;;;;;5075952;27;45307;-73
2021/10/02 15:37:17;;;;;;;;;3.00;2.00;;;;;;;;5076651;27;45550;-73
2021/10/02 15:39:42;;;;;;;;;3.75;3.75;;;;;;;;5072894;27;46161;-74